Time;durP1;ratioP1;P1;durP2;ratioP2;P2;SDS_P1;SDS_P2;PMS_P1;PMS_P2;Temp;Humidity;BMP_temperature;BMP_pressure;BME280_temperature;BME280_humidity;BME280_pressure;Samples;Min_cycle;Max_cycle;Signal;HPM_P1;HPM_P2
2022/11/10 00:01:17;;;;;;;9.10;8.30;;;18.70;73.60;;;;;;5047509;28;43340;-74
2022/11/10 00:04:03;;;;;;;8.60;8.00;;;18.70;73.40;;;;;;5043106;28;43682;-72
2022/11/10 00:06:50;;;;;;;8.40;7.80;;;18.70;73.30;;;;;;5048480;28;43552;-74
2022/11/10 00:09:36;;;;;;;9.00;8.33;;;18.70;73.50;;;;;;5047950;28;43370;-75
2022/11/10 00:12:23;;;;;;;8.17;7.47;;;18.60;73.80;;;;;;5044130;28;43332;-74
2022/11/10 00:18:15;;;;;;;8.73;8.10;;;18.70;73.60;;;;;;5048313;28;43792;-74
2022/11/10 00:21:03;;;;;;;7.90;7.30;;;18.70;73.50;;;;;;5048621;28;43423;-73
2022/11/10 00:23:50;;;;;;;9.07;8.30;;;18.60;73.50;;;;;;5049822;28;43411;-73
2022/11/10 00:26:36;;;;;;;9.13;8.43;;;18.60;73.80;;;;;;5049613;28;43554;-74
2022/11/10 00:29:22;;;;;;;8.93;8.23;;;18.60;74.10;;;;;;5047723;28;43328;-73
2022/11/10 00:32:10;;;;;;;8.97;8.17;;;18.70;73.70;;;;;;5043230;28;43845;-74
2022/11/10 00:34:57;;;;;;;8.30;7.70;;;18.90;73.20;;;;;;5047042;28;43503;-73
2022/11/10 00:37:43;;;;;;;9.07;8.27;;;19.10;72.60;;;;;;5047428;28;43492;-73
2022/11/10 00:40:29;;;;;;;7.97;7.37;;;19.20;72.20;;;;;;5049889;28;43487;-73
2022/11/10 00:43:16;;;;;;;7.73;7.23;;;19.10;72.10;;;;;;5047800;28;43385;-73
2022/11/10 00:46:06;;;;;;;7.97;7.37;;;19.10;72.10;;;;;;5047181;28;43989;-73
2022/11/10 00:48:54;;;;;;;7.80;7.20;;;19.00;72.40;;;;;;5047690;28;43709;-74
2022/11/10 00:51:40;;;;;;;6.97;6.57;;;18.90;72.90;;;;;;5042599;28;43460;-74
2022/11/10 00:54:27;;;;;;;8.17;7.57;;;18.80;73.20;;;;;;5048000;28;43353;-74
2022/11/10 00:57:13;;;;;;;7.90;7.40;;;18.80;73.10;;;;;;5048346;28;43451;-74
2022/11/10 00:59:59;;;;;;;7.30;6.80;;;18.80;73.10;;;;;;5049588;28;43540;-73
2022/11/10 01:02:46;;;;;;;7.73;7.23;;;18.70;73.10;;;;;;5047543;28;43409;-73
2022/11/10 01:05:35;;;;;;;7.50;7.00;;;18.70;73.70;;;;;;5047593;28;43459;-74
2022/11/10 01:08:22;;;;;;;7.40;6.90;;;18.70;73.80;;;;;;5044261;28;43354;-73
2022/11/10 01:11:09;;;;;;;7.63;7.13;;;18.70;73.50;;;;;;5046406;28;43528;-73
2022/11/10 01:13:56;;;;;;;7.13;6.73;;;18.70;73.40;;;;;;5042269;28;43392;-73
2022/11/10 01:16:43;;;;;;;7.97;7.40;;;18.70;73.50;;;;;;5047203;28;43392;-74
2022/11/10 01:19:29;;;;;;;7.30;6.80;;;18.60;73.70;;;;;;5047664;28;43393;-72
2022/11/10 01:22:17;;;;;;;7.93;7.27;;;18.70;74.10;;;;;;5048343;28;43492;-75
2022/11/10 01:25:04;;;;;;;7.40;6.90;;;18.80;73.60;;;;;;5047158;28;43395;-73
2022/11/10 01:27:51;;;;;;;7.53;7.03;;;19.00;73.20;;;;;;5041598;28;43460;-73
2022/11/10 01:30:37;;;;;;;7.00;6.60;;;19.10;72.50;;;;;;5046504;28;43705;-75
2022/11/10 01:33:24;;;;;;;7.03;6.53;;;19.10;72.10;;;;;;5046608;28;43505;-74
2022/11/10 01:36:11;;;;;;;7.00;6.50;;;19.10;72.10;;;;;;5045112;28;43895;-73
2022/11/10 01:38:59;;;;;;;6.73;6.33;;;19.00;72.20;;;;;;5048743;28;43436;-74
2022/11/10 01:41:45;;;;;;;7.60;7.03;;;19.00;72.50;;;;;;5047237;28;43404;-73
2022/11/10 01:44:31;;;;;;;7.07;6.57;;;18.80;72.90;;;;;;5044663;28;43565;-75
2022/11/10 01:47:18;;;;;;;7.33;6.83;;;18.80;73.20;;;;;;5049179;28;43453;-74
2022/11/10 01:50:05;;;;;;;6.23;5.83;;;18.80;73.10;;;;;;5048827;28;43445;-73
2022/11/10 01:52:53;;;;;;;6.60;6.30;;;18.80;73.10;;;;;;5048730;28;43353;-73
2022/11/10 01:55:42;;;;;;;6.97;6.57;;;18.70;73.20;;;;;;5046747;28;43605;-74
2022/11/10 01:58:31;;;;;;;6.83;6.40;;;18.70;73.70;;;;;;5043126;28;43984;-72
2022/11/10 02:01:18;;;;;;;6.33;6.03;;;18.70;73.70;;;;;;5045011;28;43471;-74
2022/11/10 02:04:06;;;;;;;6.23;5.83;;;18.70;73.50;;;;;;5041478;28;43411;-72
2022/11/10 02:06:52;;;;;;;6.10;5.80;;;18.70;73.50;;;;;;5043607;28;44051;-74
2022/11/10 02:09:39;;;;;;;6.53;6.13;;;18.60;73.40;;;;;;5046196;28;43453;-73
2022/11/10 02:12:36;;;;;;;7.33;6.83;;;18.60;73.90;;;;;;5046231;28;43414;-74
2022/11/10 02:15:23;;;;;;;6.87;6.47;;;18.70;74.00;;;;;;5046594;28;43370;-74
2022/11/10 02:18:09;;;;;;;6.97;6.30;;;18.80;73.50;;;;;;5048378;28;43493;-74
2022/11/10 02:20:57;;;;;;;6.70;6.30;;;19.00;72.90;;;;;;5045947;28;43365;-74
2022/11/10 02:23:48;;;;;;;6.47;6.07;;;19.10;72.40;;;;;;5040253;28;43416;-74
2022/11/10 02:26:34;;;;;;;5.90;5.60;;;19.10;72.30;;;;;;5049816;28;43396;-75
2022/11/10 02:29:20;;;;;;;5.83;5.60;;;19.00;72.20;;;;;;5045090;28;43668;-72
2022/11/10 02:32:07;;;;;;;5.73;5.47;;;18.90;72.40;;;;;;5046903;28;43384;-74
2022/11/10 02:34:53;;;;;;;6.20;5.87;;;18.90;72.80;;;;;;5045992;28;43422;-74
2022/11/10 02:37:41;;;;;;;6.03;5.63;;;18.80;73.30;;;;;;5039866;28;43388;-73
2022/11/10 02:40:28;;;;;;;5.77;5.47;;;18.80;74.00;;;;;;5043839;28;43562;-73
2022/11/10 02:43:15;;;;;;;6.27;5.97;;;18.70;73.20;;;;;;5044205;28;44058;-75
2022/11/10 02:46:02;;;;;;;5.80;5.60;;;18.70;73.20;;;;;;5040776;28;43325;-73
2022/11/10 02:48:49;;;;;;;5.90;5.60;;;18.70;73.40;;;;;;5046301;28;43414;-74
2022/11/10 02:51:35;;;;;;;5.90;5.60;;;18.60;73.80;;;;;;5043878;28;43563;-73
2022/11/10 02:54:23;;;;;;;5.67;5.37;;;18.70;73.80;;;;;;5045973;28;43426;-72
2022/11/10 02:57:09;;;;;;;6.00;5.70;;;18.80;73.30;;;;;;5048474;28;43384;-75
2022/11/10 02:59:55;;;;;;;5.90;5.60;;;18.90;72.90;;;;;;5048690;28;43428;-73
2022/11/10 03:02:41;;;;;;;5.77;5.47;;;18.90;72.80;;;;;;5041803;28;43695;-73
2022/11/10 03:05:28;;;;;;;5.43;5.17;;;18.90;73.00;;;;;;5045843;28;44119;-75
2022/11/10 03:08:14;;;;;;;5.97;5.67;;;18.90;73.30;;;;;;5043482;28;43534;-74
2022/11/10 03:11:02;;;;;;;5.73;5.43;;;18.90;72.90;;;;;;5046429;28;43403;-72
2022/11/10 03:13:48;;;;;;;5.43;5.17;;;18.80;72.80;;;;;;5046777;28;43675;-73
2022/11/10 03:16:47;;;;;;;5.50;5.30;;;18.80;73.00;;;;;;5043088;28;43380;-73
2022/11/10 03:19:34;;;;;;;5.57;5.30;;;18.70;73.50;;;;;;5045884;28;43432;-74
2022/11/10 03:22:20;;;;;;;5.57;5.27;;;18.70;73.40;;;;;;5045346;28;43428;-73
2022/11/10 03:25:07;;;;;;;5.00;4.80;;;18.70;73.40;;;;;;5045746;28;43559;-75
2022/11/10 03:27:55;;;;;;;5.87;5.57;;;18.70;73.40;;;;;;5040514;28;43567;-72
2022/11/10 03:30:41;;;;;;;5.13;4.93;;;18.60;73.50;;;;;;5042657;28;43880;-74
2022/11/10 03:33:28;;;;;;;5.23;5.03;;;18.60;73.90;;;;;;5048587;28;43780;-73
2022/11/10 03:36:14;;;;;;;5.30;5.00;;;18.70;73.70;;;;;;5040047;28;43543;-74
2022/11/10 03:39:01;;;;;;;5.63;5.33;;;18.80;73.20;;;;;;5048747;28;43428;-73
2022/11/10 03:41:47;;;;;;;5.63;5.33;;;18.90;73.00;;;;;;5048270;28;43400;-74
2022/11/10 03:44:35;;;;;;;5.10;4.90;;;18.90;72.70;;;;;;5048187;28;43439;-74
2022/11/10 03:47:21;;;;;;;5.30;5.10;;;18.90;73.20;;;;;;5048362;28;43663;-72
2022/11/10 03:50:09;;;;;;;5.33;5.10;;;18.90;73.10;;;;;;5041398;28;43708;-75
2022/11/10 03:52:55;;;;;;;5.70;5.40;;;18.80;72.90;;;;;;5047987;28;43420;-74
2022/11/10 03:55:42;;;;;;;5.00;4.80;;;18.80;73.00;;;;;;5049171;28;43428;-75
2022/11/10 03:58:28;;;;;;;5.40;5.10;;;18.70;73.10;;;;;;5043246;28;43969;-75
2022/11/10 04:01:16;;;;;;;4.93;4.70;;;18.70;73.70;;;;;;5046497;28;43368;-73
2022/11/10 04:04:03;;;;;;;4.90;4.70;;;18.70;73.50;;;;;;5048359;28;43393;-75
2022/11/10 04:09:53;;;;;;;5.33;5.13;;;18.70;73.50;;;;;;5047984;28;43532;-74
2022/11/10 04:15:43;;;;;;;5.10;4.90;;;18.60;73.90;;;;;;5044413;28;43404;-73
2022/11/10 04:18:31;;;;;;;4.80;4.60;;;18.70;73.70;;;;;;5051611;28;43440;-73
2022/11/10 04:21:17;;;;;;;5.00;4.80;;;18.80;73.40;;;;;;5045720;28;43491;-73
2022/11/10 04:24:04;;;;;;;4.80;4.60;;;18.80;73.10;;;;;;5045786;28;43517;-75
2022/11/10 04:26:50;;;;;;;4.67;4.53;;;18.80;73.30;;;;;;5050200;28;43464;-73
2022/11/10 04:29:37;;;;;;;4.50;4.40;;;18.80;73.50;;;;;;5049050;28;43399;-74
2022/11/10 04:32:23;;;;;;;4.80;4.60;;;18.80;73.30;;;;;;5047878;28;43551;-74
2022/11/10 04:35:11;;;;;;;4.80;4.60;;;18.70;73.20;;;;;;5047994;28;43426;-74
2022/11/10 04:37:57;;;;;;;4.50;4.40;;;18.70;73.30;;;;;;5044498;28;43424;-72
2022/11/10 04:40:43;;;;;;;5.03;4.83;;;18.60;73.60;;;;;;5047666;28;43333;-73
2022/11/10 04:43:30;;;;;;;5.10;4.80;;;18.60;73.90;;;;;;5048113;28;44014;-73
2022/11/10 04:46:20;;;;;;;4.77;4.57;;;18.70;73.70;;;;;;5048331;28;43390;-75
2022/11/10 04:49:07;;;;;;;4.37;4.27;;;18.60;73.50;;;;;;5048260;28;43374;-73
2022/11/10 04:51:54;;;;;;;4.93;4.73;;;18.60;73.60;;;;;;5048449;28;43393;-74
2022/11/10 04:54:41;;;;;;;4.93;4.73;;;18.60;73.80;;;;;;5047400;28;43723;-73
2022/11/10 04:57:30;;;;;;;5.07;4.77;;;18.60;74.20;;;;;;5047222;28;43464;-75
2022/11/10 05:00:17;;;;;;;6.00;5.50;;;18.70;73.90;;;;;;5047183;28;43392;-74
2022/11/10 05:03:04;;;;;;;5.50;5.10;;;18.80;73.30;;;;;;5047705;28;43327;-73
2022/11/10 05:05:51;;;;;;;6.10;5.60;;;19.00;72.70;;;;;;5046774;28;43614;-73
2022/11/10 05:08:39;;;;;;;5.30;4.90;;;19.10;72.40;;;;;;5046996;28;43369;-74
2022/11/10 05:11:26;;;;;;;5.57;5.07;;;19.10;72.40;;;;;;5042122;28;43450;-74
2022/11/10 05:14:12;;;;;;;5.60;5.20;;;18.90;72.40;;;;;;5050007;28;44020;-72
2022/11/10 05:16:58;;;;;;;5.70;5.23;;;18.90;72.70;;;;;;5048970;28;44079;-74
2022/11/10 05:19:46;;;;;;;5.67;5.17;;;18.80;73.10;;;;;;5048983;28;43365;-74
2022/11/10 05:22:32;;;;;;;5.67;5.27;;;18.80;73.50;;;;;;5048666;28;43313;-73
2022/11/10 05:25:20;;;;;;;5.60;5.23;;;18.70;74.00;;;;;;5047338;28;43374;-72
2022/11/10 05:28:07;;;;;;;5.87;5.37;;;18.70;73.30;;;;;;5044584;28;43668;-73
2022/11/10 05:30:53;;;;;;;6.73;6.03;;;18.70;73.40;;;;;;5047651;28;43426;-73
2022/11/10 05:33:39;;;;;;;6.17;5.63;;;18.60;73.70;;;;;;5047348;28;43399;-75
2022/11/10 05:36:26;;;;;;;6.43;5.83;;;18.60;73.80;;;;;;5047797;28;43364;-73
2022/11/10 05:39:12;;;;;;;5.97;5.47;;;18.70;73.70;;;;;;5049013;28;43491;-74
2022/11/10 05:42:00;;;;;;;6.07;5.53;;;18.60;73.50;;;;;;5042467;28;43390;-73
2022/11/10 05:44:46;;;;;;;5.80;5.37;;;18.60;73.50;;;;;;5048445;28;43432;-74
2022/11/10 05:47:32;;;;;;;6.87;6.23;;;18.60;73.70;;;;;;5047561;28;43341;-74
2022/11/10 05:50:19;;;;;;;7.07;6.23;;;18.60;74.10;;;;;;5040693;28;43653;-74
2022/11/10 05:53:06;;;;;;;6.40;5.90;;;18.70;73.90;;;;;;5046609;28;43429;-74
2022/11/10 05:55:52;;;;;;;7.20;6.57;;;18.80;73.30;;;;;;5040526;28;43368;-73
2022/11/10 05:58:40;;;;;;;6.43;5.93;;;19.00;72.70;;;;;;5046057;28;43472;-74
2022/11/10 06:01:27;;;;;;;5.80;5.40;;;19.10;72.50;;;;;;5046564;28;43589;-74
2022/11/10 06:04:13;;;;;;;6.23;5.63;;;19.00;72.30;;;;;;5042351;28;43982;-72
2022/11/10 06:06:59;;;;;;;6.57;5.97;;;19.00;72.50;;;;;;5046545;28;43341;-73
2022/11/10 06:09:47;;;;;;;6.33;5.73;;;18.90;72.80;;;;;;5040613;28;43504;-74
2022/11/10 06:12:33;;;;;;;6.27;5.77;;;18.80;73.00;;;;;;5042510;28;43490;-72
2022/11/10 06:15:21;;;;;;;6.17;5.70;;;18.70;73.50;;;;;;5045772;28;43424;-73
2022/11/10 06:18:07;;;;;;;5.70;5.20;;;18.70;73.40;;;;;;5045956;28;43536;-74
2022/11/10 06:20:54;;;;;;;6.23;5.73;;;18.70;73.30;;;;;;5046960;28;43441;-73
2022/11/10 06:23:40;;;;;;;5.97;5.47;;;18.70;73.40;;;;;;5046102;28;43590;-74
2022/11/10 06:26:26;;;;;;;6.03;5.57;;;18.70;73.50;;;;;;5047614;28;43415;-74
2022/11/10 06:29:13;;;;;;;6.00;5.50;;;18.60;73.90;;;;;;5049071;28;43305;-74
2022/11/10 06:32:00;;;;;;;5.80;5.30;;;18.70;73.90;;;;;;5041370;28;43568;-74
2022/11/10 06:34:47;;;;;;;5.47;5.07;;;18.80;73.30;;;;;;5045257;28;43505;-74
2022/11/10 06:37:34;;;;;;;5.97;5.37;;;19.00;73.00;;;;;;5046244;28;43457;-74
2022/11/10 06:40:20;;;;;;;5.73;5.23;;;18.90;72.70;;;;;;5039914;28;43460;-73
2022/11/10 06:43:07;;;;;;;5.77;5.13;;;19.00;73.10;;;;;;5046285;28;43331;-76
2022/11/10 06:45:53;;;;;;;5.10;4.70;;;18.90;72.90;;;;;;5048848;28;43611;-74
2022/11/10 06:48:41;;;;;;;5.50;5.13;;;18.90;72.80;;;;;;5041628;28;43535;-74
2022/11/10 06:51:27;;;;;;;5.63;5.23;;;18.80;72.80;;;;;;5044256;28;43368;-74
2022/11/10 06:54:14;;;;;;;5.43;5.03;;;18.80;73.00;;;;;;5048816;28;43964;-74
2022/11/10 06:57:00;;;;;;;5.23;4.93;;;18.70;74.20;;;;;;5046287;28;43536;-74
2022/11/10 06:59:46;;;;;;;5.23;4.90;;;18.70;73.60;;;;;;5046978;28;43784;-74
2022/11/10 07:02:33;;;;;;;5.10;4.80;;;18.70;73.40;;;;;;5046405;28;43407;-74
2022/11/10 07:05:20;;;;;;;5.43;5.00;;;18.70;73.40;;;;;;5045644;28;43412;-74
2022/11/10 07:08:08;;;;;;;5.60;5.10;;;18.70;73.50;;;;;;5048041;28;43607;-76
2022/11/10 07:10:55;;;;;;;4.93;4.63;;;18.60;73.90;;;;;;5041953;28;43481;-73
2022/11/10 07:13:41;;;;;;;5.53;5.20;;;18.60;74.00;;;;;;5047030;28;43774;-74
2022/11/10 07:16:28;;;;;;;5.10;4.70;;;18.70;73.60;;;;;;5046111;28;43369;-73
2022/11/10 07:19:14;;;;;;;5.37;4.87;;;18.90;73.10;;;;;;5046049;28;43641;-73
2022/11/10 07:22:02;;;;;;;4.67;4.47;;;19.00;72.70;;;;;;5048847;28;43353;-74
2022/11/10 07:24:55;;;;;;;4.80;4.50;;;19.00;72.50;;;;;;5045260;28;43437;-73
2022/11/10 07:27:42;;;;;;;4.57;4.30;;;19.00;72.50;;;;;;5051922;28;44068;-74
2022/11/10 07:30:28;;;;;;;5.30;4.80;;;18.80;72.60;;;;;;5049025;28;43533;-73
2022/11/10 07:33:15;;;;;;;5.20;4.80;;;18.80;72.90;;;;;;5049013;28;43349;-75
2022/11/10 07:36:03;;;;;;;4.80;4.57;;;18.70;73.50;;;;;;5048979;28;43502;-74
2022/11/10 07:38:51;;;;;;;4.97;4.67;;;18.70;73.50;;;;;;5048660;28;43807;-75
2022/11/10 07:41:37;;;;;;;4.70;4.40;;;18.70;73.30;;;;;;5051129;28;43497;-74
2022/11/10 07:44:24;;;;;;;4.40;4.20;;;18.70;73.40;;;;;;5048903;28;43360;-73
2022/11/10 07:47:11;;;;;;;5.33;4.87;;;18.60;73.50;;;;;;5049023;28;43942;-73
2022/11/10 07:49:57;;;;;;;5.37;4.97;;;18.60;74.00;;;;;;5047315;28;43476;-73
2022/11/10 07:52:44;;;;;;;5.13;4.83;;;18.70;73.90;;;;;;5043580;28;43618;-73
2022/11/10 07:55:31;;;;;;;5.10;4.80;;;18.80;73.60;;;;;;5048498;28;43535;-74
2022/11/10 07:58:18;;;;;;;4.50;4.30;;;18.80;73.20;;;;;;5048986;28;43368;-73
2022/11/10 08:01:05;;;;;;;4.90;4.60;;;18.80;73.00;;;;;;5045891;28;43328;-73
2022/11/10 08:03:51;;;;;;;5.40;5.00;;;18.80;73.40;;;;;;5048550;28;43501;-73
2022/11/10 08:06:38;;;;;;;4.73;4.43;;;18.80;73.30;;;;;;5051388;28;43472;-74
2022/11/10 08:09:24;;;;;;;4.67;4.37;;;18.80;73.10;;;;;;5049560;28;43347;-74
2022/11/10 08:12:12;;;;;;;4.73;4.53;;;18.70;73.10;;;;;;5048619;28;43443;-74
2022/11/10 08:14:58;;;;;;;5.40;5.00;;;18.70;73.30;;;;;;5047067;28;43684;-73
2022/11/10 08:17:45;;;;;;;4.87;4.57;;;18.70;73.80;;;;;;5050977;28;43415;-72
2022/11/10 08:20:31;;;;;;;4.27;4.07;;;18.60;73.60;;;;;;5046021;28;43416;-73
2022/11/10 08:23:17;;;;;;;4.60;4.30;;;18.60;73.50;;;;;;5048932;28;43453;-74
2022/11/10 08:26:04;;;;;;;4.60;4.30;;;18.60;73.50;;;;;;5047957;28;43659;-74
2022/11/10 08:28:52;;;;;;;4.73;4.43;;;18.60;73.70;;;;;;5043004;28;43408;-74
2022/11/10 08:31:38;;;;;;;4.83;4.53;;;18.50;74.00;;;;;;5050690;28;43417;-73
2022/11/10 08:34:25;;;;;;;5.13;4.73;;;18.50;74.00;;;;;;5042809;28;43401;-74
2022/11/10 08:37:11;;;;;;;4.97;4.67;;;18.70;73.70;;;;;;5047863;28;44121;-73
2022/11/10 08:39:58;;;;;;;4.30;4.10;;;18.90;73.20;;;;;;5049225;28;43435;-74
2022/11/10 08:42:44;;;;;;;4.77;4.47;;;19.00;72.70;;;;;;5046369;28;43415;-74
2022/11/10 08:45:32;;;;;;;4.73;4.43;;;19.00;72.50;;;;;;5047749;28;43427;-73
2022/11/10 08:48:19;;;;;;;4.30;4.10;;;19.00;72.50;;;;;;5047783;28;43725;-73
2022/11/10 08:51:06;;;;;;;4.47;4.20;;;18.90;72.60;;;;;;5043036;28;43480;-74
2022/11/10 08:53:52;;;;;;;4.20;4.00;;;18.80;72.90;;;;;;5047952;28;43451;-73
2022/11/10 08:56:38;;;;;;;4.47;4.27;;;18.70;73.40;;;;;;5043140;28;43439;-73
2022/11/10 08:59:24;;;;;;;5.07;4.77;;;18.70;73.50;;;;;;5043820;28;43606;-74
2022/11/10 09:02:12;;;;;;;3.90;3.70;;;18.70;73.40;;;;;;5046307;28;43955;-73
2022/11/10 09:04:58;;;;;;;4.30;4.10;;;18.70;73.40;;;;;;5047234;28;43393;-75
2022/11/10 09:07:45;;;;;;;4.73;4.53;;;18.60;74.20;;;;;;5045429;28;43418;-74
2022/11/10 09:10:32;;;;;;;4.53;4.23;;;18.60;74.00;;;;;;5048136;28;44344;-73
2022/11/10 09:13:20;;;;;;;4.60;4.33;;;18.60;73.90;;;;;;5047256;28;43431;-74
2022/11/10 09:16:15;;;;;;;4.57;4.37;;;18.70;73.60;;;;;;5047187;28;43370;-73
2022/11/10 09:19:03;;;;;;;4.23;4.03;;;18.70;73.30;;;;;;5050141;28;43490;-74
2022/11/10 09:21:49;;;;;;;4.57;4.37;;;18.70;73.20;;;;;;5048007;28;43556;-73
2022/11/10 09:24:35;;;;;;;4.70;4.50;;;18.70;73.70;;;;;;5040579;28;43384;-72
2022/11/10 09:27:22;;;;;;;4.20;4.00;;;18.70;73.50;;;;;;5045438;28;43427;-73
2022/11/10 09:30:09;;;;;;;4.50;4.30;;;18.70;73.50;;;;;;5048152;28;43419;-73
2022/11/10 09:33:03;;;;;;;4.30;4.10;;;18.60;73.30;;;;;;5043140;28;43627;-74
2022/11/10 09:35:51;;;;;;;4.70;4.50;;;18.60;73.50;;;;;;5044857;28;43484;-72
2022/11/10 09:38:38;;;;;;;4.40;4.20;;;18.60;74.00;;;;;;5048006;28;43367;-76
2022/11/10 09:41:25;;;;;;;4.63;4.43;;;18.70;73.90;;;;;;5047516;28;43395;-73
2022/11/10 09:44:14;;;;;;;4.73;4.47;;;18.80;73.40;;;;;;5048770;28;44050;-73
2022/11/10 09:47:03;;;;;;;4.50;4.30;;;18.80;73.00;;;;;;5047024;28;43407;-74
2022/11/10 09:49:51;;;;;;;4.40;4.20;;;18.80;72.90;;;;;;5046947;28;43403;-72
2022/11/10 09:52:38;;;;;;;5.10;4.90;;;18.80;73.30;;;;;;5042759;28;43380;-73
2022/11/10 09:55:30;;;;;;;3.93;3.83;;;18.80;73.10;;;;;;5047051;28;43691;-73
2022/11/10 09:58:17;;;;;;;3.80;3.60;;;18.80;73.10;;;;;;5040508;28;43417;-75
2022/11/10 10:01:10;;;;;;;3.80;3.70;;;18.70;73.10;;;;;;5047605;28;43412;-74
2022/11/10 10:04:15;;;;;;;4.40;4.13;;;18.70;73.30;;;;;;5046753;28;43942;-74
2022/11/10 10:07:05;;;;;;;4.50;4.30;;;18.60;73.80;;;;;;5049220;28;44132;-73
2022/11/10 10:10:01;;;;;;;3.93;3.73;;;18.60;73.70;;;;;;5046037;28;43489;-73
2022/11/10 10:12:56;;;;;;;4.73;4.47;;;18.60;73.60;;;;;;5046662;28;43310;-73
2022/11/10 10:15:56;;;;;;;4.73;4.47;;;18.60;73.70;;;;;;5050382;28;43416;-74
2022/11/10 10:18:49;;;;;;;4.27;4.07;;;18.60;73.80;;;;;;5046687;28;43664;-73
2022/11/10 10:21:40;;;;;;;4.00;3.90;;;18.60;74.20;;;;;;5043013;28;43432;-74
2022/11/10 10:24:29;;;;;;;3.90;3.80;;;18.60;74.00;;;;;;5046565;28;43382;-72
2022/11/10 10:27:19;;;;;;;3.80;3.70;;;18.50;73.70;;;;;;5048930;28;43486;-73
2022/11/10 10:30:12;;;;;;;4.30;4.10;;;18.60;73.90;;;;;;5046663;28;43497;-73
2022/11/10 10:33:03;;;;;;;4.60;4.43;;;18.50;73.90;;;;;;5043154;28;43488;-73
2022/11/10 10:35:49;;;;;;;4.10;3.93;;;18.50;74.30;;;;;;5046111;28;43379;-73
2022/11/10 10:38:37;;;;;;;4.87;4.53;;;18.60;74.00;;;;;;5047538;28;43324;-72
2022/11/10 10:41:25;;;;;;;4.27;4.07;;;18.80;73.50;;;;;;5045812;28;43747;-74
2022/11/10 10:44:14;;;;;;;4.30;4.17;;;19.00;73.00;;;;;;5049242;28;43752;-72
2022/11/10 10:47:01;;;;;;;4.20;3.90;;;19.10;72.60;;;;;;5047848;28;43392;-73
2022/11/10 10:49:48;;;;;;;4.20;4.00;;;19.00;72.50;;;;;;5051096;28;43383;-73
2022/11/10 10:52:34;;;;;;;3.90;3.70;;;18.90;72.50;;;;;;5049676;28;43493;-73
2022/11/10 10:55:21;;;;;;;3.93;3.73;;;18.80;72.70;;;;;;5049736;28;43907;-74
2022/11/10 10:58:20;;;;;;;3.83;3.63;;;18.80;73.10;;;;;;5049410;28;43792;-74
2022/11/10 11:01:24;;;;;;;4.13;3.93;;;18.70;73.60;;;;;;5047156;28;43855;-75
2022/11/10 11:04:26;;;;;;;3.63;3.53;;;18.70;73.50;;;;;;5044487;28;43536;-74
2022/11/10 11:07:20;;;;;;;3.73;3.63;;;18.60;73.30;;;;;;5052323;28;43408;-72
2022/11/10 11:10:18;;;;;;;3.90;3.77;;;18.60;73.50;;;;;;5049089;28;43467;-74
2022/11/10 11:13:15;;;;;;;3.87;3.67;;;18.60;74.00;;;;;;5051225;28;43384;-75
2022/11/10 11:16:02;;;;;;;3.47;3.37;;;18.60;74.00;;;;;;5048934;28;44162;-73
2022/11/10 11:18:50;;;;;;;3.63;3.53;;;18.60;73.70;;;;;;5045317;28;43456;-75
2022/11/10 11:21:39;;;;;;;3.73;3.63;;;18.60;73.80;;;;;;5048739;28;43413;-73
2022/11/10 11:24:30;;;;;;;3.20;3.10;;;18.60;73.90;;;;;;5050425;28;43446;-73
2022/11/10 11:27:19;;;;;;;3.27;3.07;;;18.50;74.10;;;;;;5051372;28;43699;-73
2022/11/10 11:30:09;;;;;;;3.80;3.70;;;18.60;74.30;;;;;;5046216;28;43494;-73
2022/11/10 11:33:21;;;;;;;4.10;3.90;;;18.70;72.90;;;;;;5049547;28;43406;-74
2022/11/10 11:36:14;;;;;;;3.40;3.30;;;18.80;72.70;;;;;;5050039;28;43475;-75
2022/11/10 11:39:05;;;;;;;3.73;3.43;;;19.00;72.40;;;;;;5052051;28;43497;-74
2022/11/10 11:41:55;;;;;;;4.23;3.63;;;19.00;72.20;;;;;;5048223;28;43395;-75
2022/11/10 11:44:49;;;;;;;3.90;3.70;;;19.00;72.10;;;;;;5047773;28;43949;-74
2022/11/10 11:47:41;;;;;;;3.90;3.70;;;18.90;72.30;;;;;;5049149;28;43428;-75
2022/11/10 11:50:29;;;;;;;3.97;3.80;;;18.80;72.60;;;;;;5047997;28;43551;-74
2022/11/10 11:53:25;;;;;;;3.90;3.70;;;18.70;73.20;;;;;;5048966;28;43462;-73
2022/11/10 11:56:18;;;;;;;3.53;3.43;;;18.70;73.20;;;;;;5050516;28;44046;-73
2022/11/10 11:59:13;;;;;;;4.00;3.80;;;18.70;73.00;;;;;;5046343;28;43729;-74
2022/11/10 12:02:13;;;;;;;3.57;3.40;;;18.70;73.20;;;;;;5045331;28;43622;-74
2022/11/10 12:05:07;;;;;;;4.10;3.90;;;18.60;73.30;;;;;;5048686;28;43371;-72
2022/11/10 12:07:56;;;;;;;4.00;3.80;;;18.60;73.90;;;;;;5050189;28;43472;-73
2022/11/10 12:10:48;;;;;;;3.53;3.33;;;18.50;73.50;;;;;;5049457;28;43345;-74
2022/11/10 12:13:37;;;;;;;3.50;3.37;;;18.50;73.40;;;;;;5048828;28;43497;-75
2022/11/10 12:16:26;;;;;;;3.50;3.40;;;18.60;73.60;;;;;;5044941;28;43420;-74
2022/11/10 12:19:17;;;;;;;3.30;3.17;;;18.50;73.60;;;;;;5049018;28;43364;-73
2022/11/10 12:22:07;;;;;;;4.40;4.20;;;18.50;74.20;;;;;;5049363;28;43442;-75
2022/11/10 12:25:01;;;;;;;4.07;3.87;;;18.60;74.10;;;;;;5048492;28;43565;-75
2022/11/10 12:27:50;;;;;;;3.60;3.50;;;18.80;73.70;;;;;;5051129;28;43877;-73
2022/11/10 12:30:37;;;;;;;3.47;3.37;;;18.90;73.00;;;;;;5046366;28;43369;-73
2022/11/10 12:33:33;;;;;;;3.73;3.53;;;19.00;72.80;;;;;;5051934;28;43421;-74
2022/11/10 12:36:20;;;;;;;3.83;3.53;;;19.00;72.60;;;;;;5044893;28;43486;-74
2022/11/10 12:39:11;;;;;;;3.60;3.50;;;18.90;72.70;;;;;;5050219;28;43602;-75
2022/11/10 12:41:58;;;;;;;3.50;3.40;;;18.80;72.80;;;;;;5043442;28;43405;-73
2022/11/10 12:44:58;;;;;;;4.00;3.77;;;18.80;73.40;;;;;;5049353;28;43432;-73
2022/11/10 12:47:45;;;;;;;3.80;3.60;;;18.70;73.70;;;;;;5045574;28;43569;-72
2022/11/10 12:50:38;;;;;;;3.60;3.50;;;18.70;73.50;;;;;;5048965;28;43447;-74
2022/11/10 12:53:26;;;;;;;3.63;3.43;;;18.70;73.50;;;;;;5045591;28;43398;-74
2022/11/10 12:56:16;;;;;;;3.83;3.57;;;18.60;73.60;;;;;;5046282;28;43288;-74
2022/11/10 12:59:28;;;;;;;3.23;3.13;;;18.60;74.00;;;;;;5051866;28;43486;-74
2022/11/10 13:02:24;;;;;;;3.20;3.10;;;18.60;74.10;;;;;;5047305;28;43345;-72
2022/11/10 13:05:27;;;;;;;4.20;3.90;;;18.60;73.90;;;;;;5044847;28;43437;-73
2022/11/10 13:08:34;;;;;;;3.10;3.00;;;18.60;73.90;;;;;;5050507;28;43391;-74
2022/11/10 13:11:27;;;;;;;3.77;3.57;;;18.60;74.00;;;;;;5050548;28;43684;-73
2022/11/10 13:14:24;;;;;;;3.83;3.73;;;18.50;74.40;;;;;;5046412;28;43447;-74
2022/11/10 13:17:26;;;;;;;3.77;3.63;;;18.60;74.50;;;;;;5044407;28;43456;-74
2022/11/10 13:20:49;;;;;;;3.80;3.60;;;18.80;74.10;;;;;;5048257;28;43527;-74
2022/11/10 13:24:08;;;;;;;3.50;3.40;;;18.90;73.50;;;;;;5046869;28;43495;-74
2022/11/10 13:26:55;;;;;;;3.33;3.23;;;19.00;73.10;;;;;;5048872;28;43317;-73
2022/11/10 13:29:54;;;;;;;3.20;3.10;;;19.00;73.00;;;;;;5045676;28;44020;-74
2022/11/10 13:32:40;;;;;;;3.40;3.20;;;18.80;73.00;;;;;;5049176;28;43439;-73
2022/11/10 13:35:52;;;;;;;3.43;3.33;;;18.80;73.30;;;;;;5044835;28;43578;-73
2022/11/10 13:38:41;;;;;;;3.10;3.00;;;18.70;73.80;;;;;;5045350;28;43976;-72
2022/11/10 13:41:27;;;;;;;3.57;3.37;;;18.70;73.80;;;;;;5049797;28;43391;-74
2022/11/10 13:44:24;;;;;;;2.93;2.83;;;18.70;73.80;;;;;;5047951;28;43380;-73
2022/11/10 13:47:34;;;;;;;3.07;2.97;;;18.60;73.70;;;;;;5044857;28;43678;-73
2022/11/10 13:50:27;;;;;;;3.67;3.50;;;18.60;73.80;;;;;;5046012;28;43421;-72
2022/11/10 13:53:21;;;;;;;3.33;3.23;;;18.60;74.40;;;;;;5050821;28;43429;-74
2022/11/10 13:56:13;;;;;;;3.60;3.40;;;18.70;74.30;;;;;;5049125;28;43478;-73
2022/11/10 13:58:59;;;;;;;3.27;3.17;;;18.80;73.90;;;;;;5050695;28;43497;-74
2022/11/10 14:01:45;;;;;;;3.93;3.73;;;18.80;73.40;;;;;;5042749;28;43372;-74
2022/11/10 14:04:40;;;;;;;3.33;3.23;;;18.80;73.30;;;;;;5047907;28;43451;-74
2022/11/10 14:07:28;;;;;;;3.33;3.17;;;18.80;73.70;;;;;;5043553;28;43860;-74
2022/11/10 14:10:18;;;;;;;2.83;2.73;;;18.80;73.70;;;;;;5048566;28;43993;-74
2022/11/10 14:13:06;;;;;;;3.20;3.10;;;18.70;74.10;;;;;;5048018;28;43669;-75
2022/11/10 14:15:52;;;;;;;3.17;3.07;;;18.70;73.50;;;;;;5047280;28;43446;-73
2022/11/10 14:18:39;;;;;;;3.13;3.00;;;18.60;73.50;;;;;;5046430;28;43913;-73
2022/11/10 14:21:29;;;;;;;3.40;3.20;;;18.60;74.10;;;;;;5044348;28;43545;-73
2022/11/10 14:24:19;;;;;;;3.30;3.20;;;18.60;74.00;;;;;;5051320;28;43360;-72
2022/11/10 14:27:11;;;;;;;3.10;2.90;;;18.60;73.90;;;;;;5042932;28;43774;-73
2022/11/10 14:30:07;;;;;;;3.27;3.17;;;18.60;73.90;;;;;;5047834;28;43450;-73
2022/11/10 14:32:55;;;;;;;4.30;3.40;;;18.60;74.00;;;;;;5046823;28;44072;-74
2022/11/10 14:35:46;;;;;;;3.53;3.33;;;18.60;74.50;;;;;;5050057;28;43306;-73
2022/11/10 14:38:34;;;;;;;3.50;3.30;;;18.60;74.30;;;;;;5041741;28;43450;-72
2022/11/10 14:41:22;;;;;;;3.07;2.97;;;18.80;73.90;;;;;;5044697;28;43432;-74
2022/11/10 14:44:14;;;;;;;2.93;2.83;;;18.80;73.40;;;;;;5047043;28;43534;-73
2022/11/10 14:47:14;;;;;;;2.97;2.87;;;18.80;73.30;;;;;;5043314;28;43357;-73
2022/11/10 14:50:06;;;;;;;3.50;3.30;;;18.80;73.70;;;;;;5045268;28;43430;-72